createdAt,value
2023-04-16T00:00:15.196Z,14.98
2023-04-16T00:00:48.276Z,14.50
2023-04-16T00:01:19.771Z,15.27
2023-04-16T00:01:51.576Z,15.18
2023-04-16T00:02:23.307Z,15.30
2023-04-16T00:02:55.070Z,14.23
2023-04-16T00:03:26.892Z,14.95
2023-04-16T00:03:58.828Z,15.73
2023-04-16T00:04:31.216Z,14.70
2023-04-16T00:05:03.082Z,15.52
2023-04-16T00:05:34.695Z,14.00
2023-04-16T00:06:06.287Z,15.98
2023-04-16T00:06:37.755Z,14.65
2023-04-16T00:07:09.403Z,14.50
2023-04-16T00:07:41.105Z,13.85
2023-04-16T00:08:12.725Z,13.77
2023-04-16T00:08:44.237Z,15.50
2023-04-16T00:09:15.756Z,14.57
2023-04-16T00:09:47.257Z,15.88
2023-04-16T00:10:18.872Z,16.48
2023-04-16T00:10:52.504Z,16.00
2023-04-16T00:11:24.167Z,14.98
2023-04-16T00:11:55.833Z,16.35
2023-04-16T00:12:27.480Z,14.40
2023-04-16T00:12:59.000Z,15.50
2023-04-16T00:13:30.495Z,14.63
2023-04-16T00:14:01.999Z,16.38
2023-04-16T00:14:33.520Z,15.20
2023-04-16T00:15:05.522Z,15.68
2023-04-16T00:15:37.017Z,16.70
2023-04-16T00:16:08.959Z,15.27
2023-04-16T00:16:40.436Z,14.63
2023-04-16T00:17:12.085Z,16.60
2023-04-16T00:17:43.822Z,15.27
2023-04-16T00:18:15.426Z,17.23
2023-04-16T00:18:47.064Z,14.75
2023-04-16T00:19:18.522Z,14.38
2023-04-16T00:19:49.986Z,16.25
2023-04-16T00:20:21.492Z,15.65
2023-04-16T00:20:53.498Z,14.70
2023-04-16T00:21:25.059Z,14.30
2023-04-16T00:21:56.530Z,14.60
2023-04-16T00:22:28.040Z,15.80
2023-04-16T00:22:59.506Z,14.68
2023-04-16T00:23:31.084Z,14.75
2023-04-16T00:24:02.614Z,14.80
2023-04-16T00:24:34.080Z,15.05
2023-04-16T00:25:05.902Z,16.00
2023-04-16T00:25:37.331Z,15.13
2023-04-16T00:26:08.792Z,16.95
2023-04-16T00:26:40.969Z,17.05
2023-04-16T00:27:12.515Z,15.40
2023-04-16T00:27:43.986Z,16.10
2023-04-16T00:28:15.652Z,14.57
2023-04-16T00:28:47.265Z,15.63
2023-04-16T00:29:19.252Z,15.55
2023-04-16T00:29:50.781Z,14.88
2023-04-16T00:30:22.737Z,16.05
2023-04-16T00:30:54.752Z,16.77
2023-04-16T00:31:31.052Z,16.90
2023-04-16T00:32:02.790Z,16.40
2023-04-16T00:32:34.682Z,15.98
2023-04-16T00:33:08.611Z,17.33
2023-04-16T00:33:40.391Z,16.35
2023-04-16T00:34:11.949Z,15.23
2023-04-16T00:34:43.565Z,18.92
2023-04-16T00:35:15.072Z,17.40
2023-04-16T00:35:47.126Z,15.95
2023-04-16T00:36:18.613Z,15.48
2023-04-16T00:36:50.206Z,18.15
2023-04-16T00:37:21.626Z,15.27
2023-04-16T00:37:53.129Z,16.30
2023-04-16T00:38:24.831Z,16.20
2023-04-16T00:38:56.712Z,16.60
2023-04-16T00:39:28.197Z,17.90
2023-04-16T00:39:59.658Z,16.65
2023-04-16T00:40:31.366Z,16.73
2023-04-16T00:41:02.951Z,14.75
2023-04-16T00:41:34.424Z,16.63
2023-04-16T00:42:06.021Z,16.30
2023-04-16T00:42:38.221Z,16.80
2023-04-16T00:43:09.748Z,16.63
2023-04-16T00:43:41.232Z,18.55
2023-04-16T00:44:12.746Z,16.65
2023-04-16T00:44:45.424Z,17.27
2023-04-16T00:45:16.914Z,15.23
2023-04-16T00:45:48.746Z,16.13
2023-04-16T00:46:22.168Z,17.23
2023-04-16T00:46:53.954Z,17.15
2023-04-16T00:47:25.542Z,18.52
2023-04-16T00:48:00.457Z,16.10
2023-04-16T00:48:32.902Z,17.48
2023-04-16T00:49:04.558Z,16.77
2023-04-16T00:49:36.130Z,16.73
2023-04-16T00:50:08.025Z,16.52
2023-04-16T00:50:39.534Z,17.63
2023-04-16T00:51:11.568Z,16.33
2023-04-16T00:51:43.086Z,16.10
2023-04-16T00:52:14.836Z,17.85
2023-04-16T00:52:49.648Z,16.75
2023-04-16T00:53:21.149Z,16.55
2023-04-16T00:53:52.647Z,16.67
2023-04-16T00:54:25.669Z,17.23
2023-04-16T00:54:57.411Z,16.58
2023-04-16T00:55:29.160Z,16.95
2023-04-16T00:56:02.840Z,16.48
2023-04-16T00:56:35.652Z,17.27
2023-04-16T00:57:07.139Z,16.45
2023-04-16T00:57:39.026Z,16.75
2023-04-16T00:58:10.545Z,17.00
2023-04-16T00:58:42.024Z,17.30
2023-04-16T00:59:13.498Z,15.38
2023-04-16T00:59:45.202Z,17.10
2023-04-16T01:00:16.943Z,17.50
2023-04-16T01:00:48.450Z,16.23
2023-04-16T01:01:21.130Z,16.27
2023-04-16T01:01:52.950Z,17.88
2023-04-16T01:02:24.813Z,16.85
2023-04-16T01:02:57.010Z,15.80
2023-04-16T01:03:48.032Z,16.27
2023-04-16T01:04:19.714Z,14.82
2023-04-16T01:04:51.744Z,16.63
2023-04-16T01:05:23.190Z,16.92
2023-04-16T01:05:55.602Z,17.95
2023-04-16T01:06:27.872Z,16.42
2023-04-16T01:07:00.166Z,17.15
2023-04-16T01:07:31.780Z,17.67
2023-04-16T01:08:03.295Z,16.75
2023-04-16T01:08:35.133Z,17.40
2023-04-16T01:09:07.041Z,18.55
2023-04-16T01:09:38.645Z,17.23
2023-04-16T01:10:10.517Z,17.75
2023-04-16T01:10:42.139Z,17.42
2023-04-16T01:11:15.072Z,17.80
2023-04-16T01:11:46.716Z,17.48
2023-04-16T01:12:18.304Z,17.45
2023-04-16T01:12:49.792Z,18.83
2023-04-16T01:13:21.429Z,18.55
2023-04-16T01:13:52.899Z,17.92
2023-04-16T01:14:24.426Z,19.08
2023-04-16T01:14:56.390Z,18.42
2023-04-16T01:15:27.889Z,15.73
2023-04-16T01:16:00.110Z,16.90
2023-04-16T01:16:32.344Z,17.52
2023-04-16T01:17:04.153Z,18.98
2023-04-16T01:17:35.687Z,17.98
2023-04-16T01:18:17.132Z,18.20
2023-04-16T01:18:48.911Z,17.42
2023-04-16T01:19:20.483Z,17.10
2023-04-16T01:19:52.012Z,18.13
2023-04-16T01:20:23.580Z,19.75
2023-04-16T01:20:55.342Z,18.83
2023-04-16T01:21:27.488Z,17.17
2023-04-16T01:21:59.148Z,20.63
2023-04-16T01:22:30.895Z,16.33
2023-04-16T01:23:02.435Z,16.67
2023-04-16T01:23:34.081Z,18.42
2023-04-16T01:24:06.274Z,17.13
2023-04-16T01:24:38.262Z,17.70
2023-04-16T01:25:14.112Z,18.08
2023-04-16T01:25:46.343Z,17.27
2023-04-16T01:26:17.803Z,17.42
2023-04-16T01:26:49.319Z,18.70
2023-04-16T01:27:20.879Z,17.70
2023-04-16T01:27:54.818Z,17.02
2023-04-16T01:28:26.465Z,17.02
2023-04-16T01:28:58.444Z,18.08
2023-04-16T01:29:30.090Z,18.85
2023-04-16T01:30:03.343Z,17.85
2023-04-16T01:30:45.522Z,17.90
2023-04-16T01:31:24.870Z,18.80
2023-04-16T01:32:03.195Z,17.63
2023-04-16T01:32:40.693Z,18.50
2023-04-16T01:33:12.852Z,16.33
2023-04-16T01:33:45.410Z,16.90
2023-04-16T01:34:17.271Z,18.30
2023-04-16T01:34:49.622Z,18.48
2023-04-16T01:35:21.264Z,18.60
2023-04-16T01:35:53.000Z,18.75
2023-04-16T01:36:24.617Z,20.17
2023-04-16T01:36:56.181Z,19.02
2023-04-16T01:37:27.674Z,17.52
2023-04-16T01:37:59.205Z,19.17
2023-04-16T01:38:30.669Z,18.88
2023-04-16T01:39:03.368Z,17.77
2023-04-16T01:39:34.878Z,19.75
2023-04-16T01:40:06.900Z,17.80
2023-04-16T01:40:38.717Z,18.48
2023-04-16T01:41:10.207Z,18.33
2023-04-16T01:41:42.542Z,18.52
2023-04-16T01:42:14.001Z,18.52
2023-04-16T01:42:45.633Z,19.88
2023-04-16T01:43:17.194Z,17.63
2023-04-16T01:43:48.677Z,16.90
2023-04-16T01:44:21.698Z,18.52
2023-04-16T01:44:53.224Z,17.48
2023-04-16T01:45:25.292Z,18.88
2023-04-16T01:46:13.046Z,18.08
2023-04-16T01:46:45.081Z,17.48
2023-04-16T01:47:16.900Z,17.38
2023-04-16T01:47:49.942Z,18.27
2023-04-16T01:48:21.453Z,17.98
2023-04-16T01:48:54.778Z,19.95
2023-04-16T01:49:26.309Z,19.25
2023-04-16T01:49:59.770Z,18.42
2023-04-16T01:50:31.522Z,18.23
2023-04-16T01:51:04.884Z,19.48
2023-04-16T01:51:36.483Z,19.10
2023-04-16T01:52:08.654Z,20.17
2023-04-16T01:52:40.239Z,19.38
2023-04-16T01:53:11.685Z,19.13
2023-04-16T01:53:43.574Z,19.25
2023-04-16T01:54:15.304Z,19.08
2023-04-16T01:54:47.014Z,17.45
2023-04-16T01:55:18.554Z,19.00
2023-04-16T01:55:50.031Z,18.90
2023-04-16T01:56:21.584Z,21.23
2023-04-16T01:56:53.123Z,19.15
2023-04-16T01:57:24.629Z,18.83
2023-04-16T01:57:57.667Z,20.20
2023-04-16T01:58:32.621Z,19.58
2023-04-16T01:59:04.408Z,19.38
2023-04-16T01:59:41.565Z,18.65
2023-04-16T02:00:13.163Z,19.83
2023-04-16T02:00:50.905Z,18.35
2023-04-16T02:01:22.633Z,18.48
2023-04-16T02:01:54.404Z,20.65
2023-04-16T02:02:29.097Z,19.50
2023-04-16T02:03:01.257Z,19.30
2023-04-16T02:03:33.517Z,20.17
2023-04-16T02:04:05.578Z,20.83
2023-04-16T02:04:41.660Z,20.30
2023-04-16T02:05:13.156Z,19.17
2023-04-16T02:05:44.632Z,21.70
2023-04-16T02:06:16.465Z,21.60
2023-04-16T02:06:48.009Z,20.58
2023-04-16T02:07:20.195Z,20.67
2023-04-16T02:07:51.640Z,20.33
2023-04-16T02:08:23.481Z,21.63
2023-04-16T02:08:55.022Z,20.85
2023-04-16T02:09:26.645Z,21.02
2023-04-16T02:09:58.354Z,22.17
2023-04-16T02:10:29.937Z,21.40
2023-04-16T02:11:02.070Z,20.05
2023-04-16T02:11:34.147Z,20.30
2023-04-16T02:12:06.086Z,19.27
2023-04-16T02:12:37.557Z,22.40
2023-04-16T02:13:09.350Z,20.25
2023-04-16T02:13:41.441Z,20.83
2023-04-16T02:14:12.987Z,20.60
2023-04-16T02:14:44.677Z,20.23
2023-04-16T02:15:18.381Z,21.92
2023-04-16T02:15:50.922Z,23.80
2023-04-16T02:16:29.349Z,23.02
2023-04-16T02:17:21.368Z,21.90
2023-04-16T02:17:57.039Z,23.45
2023-04-16T02:18:29.971Z,21.77
2023-04-16T02:19:02.364Z,21.65
2023-04-16T02:19:36.650Z,20.88
2023-04-16T02:20:10.185Z,23.00
2023-04-16T02:20:49.776Z,21.45
2023-04-16T02:21:22.316Z,22.30
2023-04-16T02:21:55.022Z,22.00
2023-04-16T02:22:26.463Z,21.30
2023-04-16T02:22:58.023Z,20.40
2023-04-16T02:23:29.652Z,21.08
2023-04-16T02:24:03.112Z,22.60
2023-04-16T02:24:35.934Z,21.67
2023-04-16T02:25:11.645Z,21.58
2023-04-16T02:25:45.064Z,19.85
2023-04-16T02:26:17.530Z,23.63
2023-04-16T02:26:49.790Z,21.35
2023-04-16T02:27:23.195Z,23.02
2023-04-16T02:27:59.826Z,25.02
2023-04-16T02:28:39.309Z,21.25
2023-04-16T02:29:12.374Z,22.75
2023-04-16T02:29:48.308Z,21.10
2023-04-16T02:30:22.376Z,20.92
2023-04-16T02:30:54.342Z,22.95
2023-04-16T02:31:28.389Z,22.75
2023-04-16T02:32:00.852Z,21.45
2023-04-16T02:32:33.794Z,22.98
2023-04-16T02:33:07.294Z,23.40
2023-04-16T02:33:40.139Z,23.25
2023-04-16T02:34:11.826Z,22.38
2023-04-16T02:34:43.356Z,21.67
2023-04-16T02:35:16.596Z,23.80
2023-04-16T02:35:49.800Z,22.77
2023-04-16T02:36:22.166Z,22.02
2023-04-16T02:36:55.043Z,21.48
2023-04-16T02:37:26.893Z,22.70
2023-04-16T02:37:58.794Z,22.10
2023-04-16T02:38:30.397Z,22.90
2023-04-16T02:39:02.204Z,21.67
2023-04-16T02:39:33.761Z,23.20
2023-04-16T02:40:05.732Z,23.77
2023-04-16T02:40:37.325Z,23.23
2023-04-16T02:41:08.839Z,23.25
2023-04-16T02:41:40.349Z,21.42
2023-04-16T02:42:11.839Z,21.17
2023-04-16T02:42:43.362Z,24.40
2023-04-16T02:43:14.948Z,22.08
2023-04-16T02:43:46.459Z,23.85
2023-04-16T02:44:18.051Z,22.52
2023-04-16T02:44:49.901Z,23.35
2023-04-16T02:45:21.646Z,20.45
2023-04-16T02:45:53.190Z,22.60
2023-04-16T02:46:24.904Z,22.90
2023-04-16T02:46:56.500Z,22.38
2023-04-16T02:47:27.975Z,22.30
2023-04-16T02:47:59.999Z,23.23
2023-04-16T02:48:31.811Z,22.52
2023-04-16T02:49:03.287Z,23.55
2023-04-16T02:49:35.877Z,23.25
2023-04-16T02:50:08.151Z,23.67
2023-04-16T02:50:39.690Z,22.98
2023-04-16T02:51:11.157Z,23.65
2023-04-16T02:51:42.671Z,23.35
2023-04-16T02:52:15.630Z,22.73
2023-04-16T02:52:47.392Z,22.60
2023-04-16T02:53:19.097Z,22.95
2023-04-16T02:53:50.712Z,25.08
2023-04-16T02:54:24.412Z,22.55
2023-04-16T02:54:56.025Z,22.52
2023-04-16T02:55:29.435Z,22.45
2023-04-16T02:56:01.217Z,22.80
2023-04-16T02:56:32.724Z,22.98
2023-04-16T02:57:04.297Z,23.50
2023-04-16T02:57:35.915Z,23.00
2023-04-16T02:58:07.527Z,23.38
2023-04-16T02:58:39.183Z,23.63
2023-04-16T02:59:10.958Z,23.35
2023-04-16T02:59:42.789Z,23.83
2023-04-16T03:00:14.524Z,23.02
2023-04-16T03:00:46.280Z,24.63
2023-04-16T03:01:18.224Z,23.42
2023-04-16T03:01:50.022Z,21.92
2023-04-16T03:02:21.855Z,22.02
2023-04-16T03:02:53.550Z,21.83
2023-04-16T03:03:25.373Z,22.92
2023-04-16T03:03:56.988Z,23.25
2023-04-16T03:04:28.579Z,21.63
2023-04-16T03:05:00.320Z,23.55
2023-04-16T03:05:32.108Z,24.17
2023-04-16T03:06:03.788Z,23.77
2023-04-16T03:06:35.536Z,22.55
2023-04-16T03:07:07.829Z,21.70
2023-04-16T03:07:40.715Z,23.40
2023-04-16T03:08:12.324Z,24.55
2023-04-16T03:08:43.893Z,24.55
2023-04-16T03:09:15.457Z,22.42
2023-04-16T03:09:47.209Z,23.77
2023-04-16T03:10:18.778Z,22.58
2023-04-16T03:10:50.435Z,22.25
2023-04-16T03:11:22.272Z,24.65
2023-04-16T03:11:53.910Z,25.40
2023-04-16T03:12:25.800Z,24.10
2023-04-16T03:12:57.317Z,25.08
2023-04-16T03:13:29.367Z,22.83
2023-04-16T03:14:01.174Z,24.67
2023-04-16T03:14:32.777Z,25.38
2023-04-16T03:15:04.738Z,22.70
2023-04-16T03:15:36.266Z,22.65
2023-04-16T03:16:08.082Z,21.90
2023-04-16T03:16:39.667Z,23.20
2023-04-16T03:17:11.627Z,23.85
2023-04-16T03:17:43.319Z,23.13
2023-04-16T03:18:15.358Z,23.85
2023-04-16T03:18:46.939Z,23.92
2023-04-16T03:19:18.516Z,22.75
2023-04-16T03:19:50.923Z,23.85
2023-04-16T03:20:24.337Z,24.85
2023-04-16T03:20:57.677Z,23.50
2023-04-16T03:21:29.370Z,23.50
2023-04-16T03:22:02.126Z,22.67
2023-04-16T03:22:33.778Z,22.83
2023-04-16T03:23:05.648Z,24.75
2023-04-16T03:23:37.171Z,23.33
2023-04-16T03:24:09.200Z,24.20
2023-04-16T03:24:40.784Z,22.98
2023-04-16T03:25:12.419Z,23.85
2023-04-16T03:25:46.683Z,24.15
2023-04-16T03:26:18.613Z,23.75
2023-04-16T03:26:50.364Z,23.13
2023-04-16T03:27:22.884Z,22.80
2023-04-16T03:27:54.484Z,22.67
2023-04-16T03:28:26.275Z,23.10
2023-04-16T03:28:58.158Z,23.98
2023-04-16T03:29:29.925Z,24.27
2023-04-16T03:30:02.547Z,23.13
2023-04-16T03:30:34.738Z,24.70
2023-04-16T03:31:06.693Z,22.73
2023-04-16T03:31:39.772Z,21.58
2023-04-16T03:32:12.827Z,23.80
2023-04-16T03:32:44.537Z,23.23
2023-04-16T03:33:16.400Z,25.10
2023-04-16T03:33:48.085Z,22.77
2023-04-16T03:34:19.674Z,23.33
2023-04-16T03:34:51.619Z,24.75
2023-04-16T03:35:23.124Z,26.05
2023-04-16T03:35:57.111Z,26.33
2023-04-16T03:36:31.023Z,25.42
2023-04-16T03:37:02.785Z,26.67
2023-04-16T03:37:34.916Z,24.17
2023-04-16T03:38:06.664Z,25.23
2023-04-16T03:38:38.314Z,24.35
2023-04-16T03:39:09.970Z,25.77
2023-04-16T03:39:41.841Z,24.88
2023-04-16T03:40:15.783Z,26.73
2023-04-16T03:40:47.744Z,26.05
2023-04-16T03:41:20.167Z,24.30
2023-04-16T03:41:51.669Z,25.88
2023-04-16T03:42:23.376Z,25.73
2023-04-16T03:42:55.687Z,24.35
2023-04-16T03:43:27.218Z,26.55
2023-04-16T03:43:58.765Z,27.33
2023-04-16T03:44:30.370Z,24.65
2023-04-16T03:45:01.917Z,26.38
2023-04-16T03:45:33.605Z,25.05
2023-04-16T03:46:05.337Z,24.20
2023-04-16T03:46:37.127Z,25.27
2023-04-16T03:47:08.915Z,24.40
2023-04-16T03:47:40.713Z,26.30
2023-04-16T03:48:13.954Z,24.40
2023-04-16T03:48:45.470Z,26.30
2023-04-16T03:49:17.560Z,25.67
2023-04-16T03:49:49.078Z,26.33
2023-04-16T03:50:20.896Z,28.10
2023-04-16T03:50:53.003Z,23.98
2023-04-16T03:51:26.288Z,25.58
2023-04-16T03:51:57.870Z,23.88
2023-04-16T03:52:30.687Z,26.73
2023-04-16T03:53:02.240Z,25.15
2023-04-16T03:53:33.890Z,25.60
2023-04-16T03:54:05.436Z,25.63
2023-04-16T03:54:37.707Z,26.10
2023-04-16T03:55:20.647Z,26.75
2023-04-16T03:55:52.777Z,26.60
2023-04-16T03:56:25.619Z,25.85
2023-04-16T03:56:57.735Z,26.85
2023-04-16T03:57:29.248Z,26.38
2023-04-16T03:58:06.192Z,25.65
2023-04-16T03:58:38.200Z,25.98
2023-04-16T03:59:10.218Z,24.80
2023-04-16T03:59:41.928Z,25.27
2023-04-16T04:00:14.288Z,25.25
2023-04-16T04:00:48.584Z,26.58
2023-04-16T04:01:21.591Z,26.23
2023-04-16T04:01:53.813Z,27.17
2023-04-16T04:02:25.675Z,26.25
2023-04-16T04:02:57.814Z,28.58
2023-04-16T04:03:30.133Z,26.90
2023-04-16T04:04:02.271Z,26.20
2023-04-16T04:04:34.219Z,25.48
2023-04-16T04:05:06.149Z,28.42
2023-04-16T04:05:39.775Z,25.65
2023-04-16T04:06:12.636Z,26.65
2023-04-16T04:06:46.118Z,28.25
2023-04-16T04:07:17.877Z,29.08
2023-04-16T04:07:49.596Z,26.17
2023-04-16T04:08:21.197Z,26.88
2023-04-16T04:08:52.968Z,26.83
2023-04-16T04:09:24.700Z,26.80
2023-04-16T04:09:56.989Z,25.65
2023-04-16T04:10:28.486Z,26.83
2023-04-16T04:11:00.008Z,26.98
2023-04-16T04:11:32.542Z,28.90
2023-04-16T04:12:04.137Z,27.45
2023-04-16T04:12:37.223Z,27.05
2023-04-16T04:13:08.782Z,27.02
2023-04-16T04:13:41.058Z,26.80
2023-04-16T04:14:12.831Z,27.70
2023-04-16T04:14:44.406Z,27.50
2023-04-16T04:15:16.380Z,28.25
2023-04-16T04:15:47.910Z,27.55
2023-04-16T04:16:19.577Z,27.67
2023-04-16T04:16:51.141Z,30.23
2023-04-16T04:17:22.717Z,27.42
2023-04-16T04:17:55.521Z,26.95
2023-04-16T04:18:28.064Z,25.98
2023-04-16T04:19:00.371Z,27.65
2023-04-16T04:19:31.928Z,27.70
2023-04-16T04:20:03.745Z,25.60
2023-04-16T04:20:40.119Z,27.20
2023-04-16T04:21:12.560Z,26.90
2023-04-16T04:21:44.104Z,26.77
2023-04-16T04:22:15.630Z,25.48
2023-04-16T04:22:47.179Z,28.70
2023-04-16T04:23:18.723Z,27.27
2023-04-16T04:23:51.363Z,28.05
2023-04-16T04:24:22.929Z,26.88
2023-04-16T04:24:54.552Z,25.92
2023-04-16T04:25:26.309Z,28.88
2023-04-16T04:25:58.027Z,28.75
2023-04-16T04:26:29.843Z,29.02
2023-04-16T04:27:02.116Z,26.75
2023-04-16T04:27:34.712Z,29.38
2023-04-16T04:28:07.031Z,28.75
2023-04-16T04:28:38.583Z,30.02
2023-04-16T04:29:10.298Z,28.23
2023-04-16T04:29:41.953Z,26.83
2023-04-16T04:30:13.529Z,29.63
2023-04-16T04:30:46.233Z,27.15
2023-04-16T04:31:18.292Z,29.63
2023-04-16T04:31:50.880Z,29.67
2023-04-16T04:32:22.761Z,30.13
2023-04-16T04:32:54.354Z,27.88
2023-04-16T04:33:27.203Z,30.60
2023-04-16T04:33:59.094Z,27.35
2023-04-16T04:34:30.868Z,28.50
2023-04-16T04:35:03.822Z,29.75
2023-04-16T04:35:35.519Z,28.23
2023-04-16T04:36:07.415Z,29.75
2023-04-16T04:36:39.837Z,27.48
2023-04-16T04:37:11.461Z,30.23
2023-04-16T04:37:43.438Z,29.15
2023-04-16T04:38:25.347Z,27.17
2023-04-16T04:38:57.391Z,29.23
2023-04-16T04:39:29.137Z,29.80
2023-04-16T04:40:01.007Z,30.98
2023-04-16T04:40:32.715Z,26.50
2023-04-16T04:41:04.333Z,27.60
2023-04-16T04:41:39.586Z,28.13
2023-04-16T04:42:11.191Z,28.92
2023-04-16T04:42:43.417Z,30.17
2023-04-16T04:43:14.961Z,28.73
2023-04-16T04:43:46.550Z,28.25
2023-04-16T04:44:18.400Z,26.80
2023-04-16T04:44:49.950Z,30.73
2023-04-16T04:45:25.342Z,28.25
2023-04-16T04:45:58.070Z,30.27
2023-04-16T04:46:32.010Z,26.77
2023-04-16T04:47:03.532Z,27.98
2023-04-16T04:47:35.486Z,28.73
2023-04-16T04:48:07.198Z,28.30
2023-04-16T04:48:39.422Z,29.13
2023-04-16T04:49:11.065Z,29.92
2023-04-16T04:49:42.776Z,30.25
2023-04-16T04:50:14.968Z,28.15
2023-04-16T04:50:46.711Z,29.25
2023-04-16T04:51:18.834Z,28.60
2023-04-16T04:51:51.718Z,29.25
2023-04-16T04:52:23.324Z,29.20
2023-04-16T04:52:55.708Z,29.88
2023-04-16T04:53:27.386Z,30.08
2023-04-16T04:53:59.520Z,30.08
2023-04-16T04:54:31.823Z,31.02
2023-04-16T04:55:03.765Z,29.92
2023-04-16T04:55:38.933Z,29.25
2023-04-16T04:56:12.742Z,29.77
2023-04-16T04:56:47.870Z,30.45
2023-04-16T04:57:19.416Z,31.90
2023-04-16T04:57:51.299Z,29.88
2023-04-16T04:58:22.863Z,31.52
2023-04-16T04:58:54.806Z,31.80
2023-04-16T04:59:26.450Z,28.75
2023-04-16T04:59:58.216Z,29.88
2023-04-16T05:00:34.420Z,30.05
2023-04-16T05:01:06.237Z,30.35
2023-04-16T05:01:38.412Z,29.73
2023-04-16T05:02:10.058Z,28.27
2023-04-16T05:02:41.831Z,31.05
2023-04-16T05:03:19.969Z,30.38
2023-04-16T05:03:51.691Z,29.92
2023-04-16T05:04:23.303Z,30.67
2023-04-16T05:04:55.007Z,31.88
2023-04-16T05:05:26.715Z,29.08
2023-04-16T05:05:58.321Z,30.73
2023-04-16T05:06:30.098Z,30.42
2023-04-16T05:07:02.436Z,30.00
2023-04-16T05:07:33.986Z,29.15
2023-04-16T05:08:05.505Z,28.83
2023-04-16T05:08:37.014Z,28.85
2023-04-16T05:09:11.883Z,30.05
2023-04-16T05:09:43.540Z,29.98
2023-04-16T05:10:15.693Z,28.73
2023-04-16T05:10:47.244Z,31.23
2023-04-16T05:11:18.766Z,29.42
2023-04-16T05:11:50.426Z,28.88
2023-04-16T05:12:22.183Z,30.45
2023-04-16T05:12:53.755Z,29.42
2023-04-16T05:13:25.324Z,30.02
2023-04-16T05:13:57.007Z,30.70
2023-04-16T05:14:28.543Z,31.50
2023-04-16T05:15:00.061Z,31.23
2023-04-16T05:15:31.641Z,30.60
2023-04-16T05:16:03.214Z,30.30
2023-04-16T05:16:36.626Z,31.30
2023-04-16T05:17:08.184Z,30.30
2023-04-16T05:17:39.846Z,30.38
2023-04-16T05:18:11.492Z,30.35
2023-04-16T05:18:43.175Z,29.95
2023-04-16T05:19:14.719Z,31.50
2023-04-16T05:19:46.256Z,31.17
2023-04-16T05:20:17.845Z,28.40
2023-04-16T05:20:49.429Z,31.42
2023-04-16T05:21:20.947Z,29.58
2023-04-16T05:21:52.624Z,28.30
2023-04-16T05:22:24.162Z,30.15
2023-04-16T05:22:55.964Z,29.95
2023-04-16T05:23:27.843Z,30.80
2023-04-16T05:23:59.458Z,30.23
2023-04-16T05:24:30.995Z,31.05
2023-04-16T05:25:03.097Z,31.17
2023-04-16T05:25:34.735Z,31.63
2023-04-16T05:26:06.253Z,31.05
2023-04-16T05:26:37.882Z,29.58
2023-04-16T05:27:09.597Z,31.27
2023-04-16T05:27:41.493Z,30.17
2023-04-16T05:28:13.026Z,31.17
2023-04-16T05:28:44.521Z,31.52
2023-04-16T05:29:16.034Z,30.48
2023-04-16T05:29:47.548Z,31.55
2023-04-16T05:30:19.291Z,29.65
2023-04-16T05:30:51.079Z,30.90
2023-04-16T05:31:22.941Z,29.83
2023-04-16T05:31:54.548Z,29.10
2023-04-16T05:32:26.860Z,29.85
2023-04-16T05:32:58.515Z,29.05
2023-04-16T05:33:30.206Z,31.33
2023-04-16T05:34:01.786Z,29.77
2023-04-16T05:34:33.364Z,31.20
2023-04-16T05:35:05.556Z,30.05
2023-04-16T05:35:37.077Z,31.83
2023-04-16T05:36:08.591Z,30.17
2023-04-16T05:36:40.138Z,31.10
2023-04-16T05:37:11.667Z,31.50
2023-04-16T05:37:43.351Z,32.90
2023-04-16T05:38:14.850Z,32.20
2023-04-16T05:38:46.350Z,31.05
2023-04-16T05:39:18.648Z,30.75
2023-04-16T05:39:50.355Z,32.72
2023-04-16T05:40:21.971Z,31.60
2023-04-16T05:40:53.508Z,31.58
2023-04-16T05:41:25.072Z,33.95
2023-04-16T05:41:56.574Z,30.98
2023-04-16T05:42:28.323Z,31.30
2023-04-16T05:43:00.027Z,32.35
2023-04-16T05:43:31.767Z,32.45
2023-04-16T05:44:03.334Z,32.10
2023-04-16T05:44:34.886Z,31.48
2023-04-16T05:45:07.080Z,31.98
2023-04-16T05:45:41.292Z,29.88
2023-04-16T05:46:12.992Z,32.08
2023-04-16T05:46:44.552Z,28.92
2023-04-16T05:47:16.258Z,31.48
2023-04-16T05:47:47.963Z,31.15
2023-04-16T05:48:20.239Z,31.08
2023-04-16T05:48:52.025Z,31.52
2023-04-16T05:49:23.623Z,29.73
2023-04-16T05:49:55.295Z,29.77
2023-04-16T05:50:26.818Z,30.63
2023-04-16T05:50:58.338Z,30.55
2023-04-16T05:51:29.883Z,29.42
2023-04-16T05:52:01.725Z,31.23
2023-04-16T05:52:33.298Z,30.77
2023-04-16T05:53:06.688Z,33.38
2023-04-16T05:53:38.227Z,32.15
2023-04-16T05:54:09.760Z,31.73
2023-04-16T05:54:41.372Z,33.63
2023-04-16T05:55:13.059Z,31.13
2023-04-16T05:55:44.753Z,30.67
2023-04-16T05:56:16.317Z,31.05
2023-04-16T05:56:47.820Z,29.00
2023-04-16T05:57:19.322Z,30.08
2023-04-16T05:57:50.995Z,28.63
2023-04-16T05:58:22.514Z,29.30
2023-04-16T05:58:54.070Z,31.15
2023-04-16T05:59:25.654Z,31.08
2023-04-16T05:59:57.765Z,30.63
2023-04-16T06:00:29.310Z,27.60
2023-04-16T06:01:01.455Z,30.52
2023-04-16T06:01:34.374Z,29.42
2023-04-16T06:02:06.893Z,29.52
2023-04-16T06:02:38.498Z,29.58
2023-04-16T06:03:12.038Z,30.02
2023-04-16T06:03:44.402Z,30.10
2023-04-16T06:04:16.666Z,30.33
2023-04-16T06:04:49.832Z,32.25
2023-04-16T06:05:21.595Z,29.73
2023-04-16T06:05:53.519Z,30.20
2023-04-16T06:06:26.693Z,30.95
2023-04-16T06:06:58.433Z,29.40
2023-04-16T06:07:29.961Z,29.25
2023-04-16T06:08:01.476Z,29.83
2023-04-16T06:08:33.044Z,28.25
2023-04-16T06:09:04.709Z,27.50
2023-04-16T06:09:36.497Z,28.70
2023-04-16T06:10:08.322Z,28.48
2023-04-16T06:10:40.107Z,28.10
2023-04-16T06:11:11.755Z,27.50
2023-04-16T06:11:43.313Z,27.85
2023-04-16T06:12:15.004Z,29.27
2023-04-16T06:12:46.542Z,29.33
2023-04-16T06:13:18.552Z,28.15
2023-04-16T06:13:50.192Z,30.90
2023-04-16T06:14:21.744Z,29.58
2023-04-16T06:14:53.311Z,29.95
2023-04-16T06:15:24.834Z,29.75
2023-04-16T06:15:56.477Z,29.70
2023-04-16T06:16:28.143Z,28.55
2023-04-16T06:16:59.745Z,28.70
2023-04-16T06:17:31.321Z,28.00
2023-04-16T06:18:02.985Z,29.23
2023-04-16T06:18:34.560Z,27.92
2023-04-16T06:19:06.205Z,29.98
2023-04-16T06:19:37.734Z,28.83
2023-04-16T06:20:09.889Z,28.38
2023-04-16T06:20:41.504Z,29.58
2023-04-16T06:21:13.063Z,27.67
2023-04-16T06:21:44.607Z,27.60
2023-04-16T06:22:16.149Z,30.40
2023-04-16T06:22:47.748Z,30.30
2023-04-16T06:23:19.297Z,27.70
2023-04-16T06:23:50.971Z,27.98
2023-04-16T06:24:22.528Z,28.05
2023-04-16T06:24:54.111Z,28.25
2023-04-16T06:25:25.730Z,30.40
2023-04-16T06:25:57.241Z,28.45
2023-04-16T06:26:28.772Z,29.15
2023-04-16T06:27:02.505Z,29.15
2023-04-16T06:27:34.076Z,26.73
2023-04-16T06:28:06.094Z,26.75
2023-04-16T06:28:37.600Z,27.33
2023-04-16T06:29:09.313Z,28.65
2023-04-16T06:29:41.975Z,28.05
2023-04-16T06:30:14.775Z,27.65
2023-04-16T06:30:47.209Z,28.20
2023-04-16T06:31:18.836Z,28.42
2023-04-16T06:31:50.492Z,26.45
2023-04-16T06:32:22.243Z,30.90
2023-04-16T06:32:53.972Z,29.40
2023-04-16T06:33:25.664Z,27.52
2023-04-16T06:33:57.362Z,26.48
2023-04-16T06:34:29.633Z,28.27
2023-04-16T06:35:01.400Z,28.33
2023-04-16T06:35:32.947Z,27.50
2023-04-16T06:36:04.695Z,30.00
2023-04-16T06:36:37.591Z,28.33
2023-04-16T06:37:10.653Z,26.40
2023-04-16T06:37:42.456Z,27.63
2023-04-16T06:38:14.574Z,27.90
2023-04-16T06:38:46.500Z,26.42
2023-04-16T06:39:18.219Z,26.05
2023-04-16T06:39:49.780Z,28.42
2023-04-16T06:40:21.346Z,26.90
2023-04-16T06:40:53.090Z,25.27
2023-04-16T06:41:26.619Z,26.42
2023-04-16T06:41:58.260Z,27.42
2023-04-16T06:42:29.808Z,25.52
2023-04-16T06:43:01.685Z,27.30
2023-04-16T06:43:33.971Z,25.52
2023-04-16T06:44:05.752Z,24.88
2023-04-16T06:44:37.414Z,26.52
2023-04-16T06:45:09.352Z,26.00
2023-04-16T06:45:41.131Z,26.10
2023-04-16T06:46:12.725Z,25.67
2023-04-16T06:46:44.410Z,25.38
2023-04-16T06:47:16.193Z,26.00
2023-04-16T06:47:48.218Z,24.23
2023-04-16T06:48:19.835Z,26.52
2023-04-16T06:48:51.540Z,26.17
2023-04-16T06:49:23.189Z,24.73
2023-04-16T06:49:54.856Z,25.95
2023-04-16T06:50:26.962Z,25.63
2023-04-16T06:50:58.643Z,25.98
2023-04-16T06:51:30.688Z,25.65
2023-04-16T06:52:05.144Z,26.25
2023-04-16T06:52:37.429Z,25.25
2023-04-16T06:53:09.152Z,25.20
2023-04-16T06:53:40.963Z,25.83
2023-04-16T06:54:12.505Z,25.90
2023-04-16T06:54:44.090Z,27.48